Latest Weather Observations for South Channel Island

IDV60801

Issued at 2:03 am EDT Wednesday 18 January 2017 (issued every 30 minutes, with the page automatically refreshed every 10 minutes)

About weather observations | Map of weather stations | Latest weather observations for VIC | Other Formats
Station Details ID: 086344 Name: SOUTH CHANNEL ISLAND Lat: -38.31 Lon: 144.80 Height: 9.0 m
Data from the previous 72 hours. | See also: Recent months for locations in Victoria
Date/Time
EDT
Temp
°C
App
Temp
°C
Dew
Point
°C
Rel
Hum
%
Delta-T
°C
Wind Press
QNH
hPa
Press
MSL
hPa
Rain since
9am
mm
Dir  Spd
km/h
Gust
km/h
Spd
kts
Gust
kts
18/02:00am - - - - - SW 35 39 19 21 - - -
18/01:30am - - - - - SW 32 35 17 19 - - -
18/01:00am - - - - - SW 24 28 13 15 - - -
18/12:30am - - - - - SW 15 19 8 10 - - -
18/12:00am - - - - - SW 13 15 7 8 - - -
 
Date/Time
EDT
Temp
°C
App
Temp
°C
Dew
Point
°C
Rel
Hum
%
Delta-T
°C
Wind Press
QNH
hPa
Press
MSL
hPa
Rain since
9am
mm
Dir  Spd
km/h
Gust
km/h
Spd
kts
Gust
kts
17/11:30pm - - - - - SSW 13 17 7 9 - - -
17/11:00pm - - - - - SSW 22 30 12 16 - - -
17/10:30pm - - - - - SSW 35 39 19 21 - - -
17/10:00pm - - - - - SSW 32 35 17 19 - - -
17/09:30pm - - - - - SSW 37 43 20 23 - - -
17/09:00pm - - - - - SSW 30 35 16 19 - - -
17/08:30pm - - - - - SSW 20 26 11 14 - - -
17/08:00pm - - - - - SSW 22 26 12 14 - - -
17/07:30pm - - - - - S 26 30 14 16 - - -
17/07:00pm - - - - - SSW 32 33 17 18 - - -
17/06:30pm - - - - - S 26 30 14 16 - - -
17/06:00pm - - - - - S 32 37 17 20 - - -
17/05:42pm - - - - - S 20 39 11 21 - - -
17/05:30pm - - - - - SE 17 20 9 11 - - -
17/05:00pm - - - - - SSE 32 37 17 20 - - -
17/04:30pm - - - - - S 32 35 17 19 - - -
17/04:00pm - - - - - S 22 26 12 14 - - -
17/03:30pm - - - - - S 19 22 10 12 - - -
17/03:00pm - - - - - ESE 11 13 6 7 - - -
17/02:30pm - - - - - E 13 13 7 7 - - -
17/02:00pm - - - - - ESE 7 9 4 5 - - -
17/01:30pm - - - - - SSE 7 11 4 6 - - -
17/01:00pm - - - - - ENE 4 6 2 3 - - -
17/12:30pm - - - - - SSE 13 15 7 8 - - -
17/12:00pm - - - - - ENE 6 7 3 4 - - -
17/11:30am - - - - - NE 15 17 8 9 - - -
17/11:00am - - - - - NE 13 17 7 9 - - -
17/10:30am - - - - - NNE 15 17 8 9 - - -
17/10:00am - - - - - NNE 15 15 8 8 - - -
17/09:30am - - - - - NNE 13 15 7 8 - - -
17/09:00am - - - - - N 9 9 5 5 - - -
17/08:30am - - - - - NNW 11 13 6 7 - - -
17/08:00am - - - - - WNW 11 13 6 7 - - -
17/07:30am - - - - - W 11 11 6 6 - - -
17/07:00am - - - - - SW 11 17 6 9 - - -
17/06:30am - - - - - SSW 9 11 5 6 - - -
17/06:00am - - - - - SW 13 15 7 8 - - -
17/05:30am - - - - - SW 13 13 7 7 - - -
17/05:00am - - - - - SW 9 13 5 7 - - -
17/04:30am - - - - - SW 11 13 6 7 - - -
17/04:00am - - - - - NE 7 9 4 5 - - -
17/03:30am - - - - - ENE 11 13 6 7 - - -
17/03:00am - - - - - NNE 11 13 6 7 - - -
17/02:30am - - - - - NNE 13 15 7 8 - - -
17/02:00am - - - - - NE 15 19 8 10 - - -
17/01:30am - - - - - NE 17 19 9 10 - - -
17/01:00am - - - - - CALM 0 7 0 4 - - -
17/12:30am - - - - - S 11 13 6 7 - - -
17/12:00am - - - - - CALM 0 0 0 0 - - -
 
Date/Time
EDT
Temp
°C
App
Temp
°C
Dew
Point
°C
Rel
Hum
%
Delta-T
°C
Wind Press
QNH
hPa
Press
MSL
hPa
Rain since
9am
mm
Dir  Spd
km/h
Gust
km/h
Spd
kts
Gust
kts
16/11:30pm - - - - - ESE 7 9 4 5 - - -
16/11:00pm - - - - - SE 13 15 7 8 - - -
16/10:30pm - - - - - SSE 24 26 13 14 - - -
16/10:00pm - - - - - SSW 9 13 5 7 - - -
16/09:30pm - - - - - WSW 7 9 4 5 - - -
16/09:00pm - - - - - NE 7 9 4 5 - - -
16/08:30pm - - - - - ESE 11 17 6 9 - - -
16/08:00pm - - - - - E 15 19 8 10 - - -
16/07:30pm - - - - - ESE 20 22 11 12 - - -
16/07:00pm - - - - - S 15 17 8 9 - - -
16/06:30pm - - - - - S 17 17 9 9 - - -
16/06:00pm - - - - - SSW 17 19 9 10 - - -
16/05:30pm - - - - - SSW 9 15 5 8 - - -
16/05:00pm - - - - - ESE 7 9 4 5 - - -
16/04:30pm - - - - - E 13 15 7 8 - - -
16/04:00pm - - - - - ESE 13 15 7 8 - - -
16/03:30pm - - - - - E 17 19 9 10 - - -
16/03:00pm - - - - - E 15 15 8 8 - - -
16/02:30pm - - - - - ENE 13 15 7 8 - - -
16/02:00pm - - - - - E 13 15 7 8 - - -
16/01:30pm - - - - - E 13 15 7 8 - - -
16/01:00pm - - - - - ENE 13 15 7 8 - - -
16/12:30pm - - - - - NE 11 13 6 7 - - -
16/12:00pm - - - - - NNE 11 15 6 8 - - -
16/11:30am - - - - - NNE 17 19 9 10 - - -
16/11:00am - - - - - NE 17 20 9 11 - - -
16/10:30am - - - - - NE 11 15 6 8 - - -
16/10:00am - - - - - NE 11 15 6 8 - - -
16/09:30am - - - - - NE 19 24 10 13 - - -
16/09:00am - - - - - NE 15 19 8 10 - - -
16/08:30am - - - - - NE 15 17 8 9 - - -
16/08:00am - - - - - NNE 7 17 4 9 - - -
16/07:30am - - - - - N 7 11 4 6 - - -
16/07:00am - - - - - WSW 2 7 1 4 - - -
16/06:30am - - - - - WSW 7 9 4 5 - - -
16/06:00am - - - - - WNW 11 13 6 7 - - -
16/05:30am - - - - - WNW 11 15 6 8 - - -
16/05:00am - - - - - NNW 9 13 5 7 - - -
16/04:30am - - - - - S 2 7 1 4 - - -
16/04:00am - - - - - SSW 6 11 3 6 - - -
16/03:30am - - - - - W 9 15 5 8 - - -
16/03:00am - - - - - S 9 11 5 6 - - -
16/02:30am - - - - - S 13 17 7 9 - - -
16/02:00am - - - - - S 13 17 7 9 - - -
16/01:30am - - - - - S 11 15 6 8 - - -
16/01:00am - - - - - SSE 9 15 5 8 - - -
16/12:30am - - - - - SSE 11 15 6 8 - - -
16/12:00am - - - - - S 13 15 7 8 - - -
 
Date/Time
EDT
Temp
°C
App
Temp
°C
Dew
Point
°C
Rel
Hum
%
Delta-T
°C
Wind Press
QNH
hPa
Press
MSL
hPa
Rain since
9am
mm
Dir  Spd
km/h
Gust
km/h
Spd
kts
Gust
kts
15/11:30pm - - - - - S 13 15 7 8 - - -
15/11:00pm - - - - - S 15 19 8 10 - - -
15/10:30pm - - - - - S 13 17 7 9 - - -
15/10:00pm - - - - - S 15 20 8 11 - - -
15/09:30pm - - - - - S 13 17 7 9 - - -
15/09:00pm - - - - - S 15 20 8 11 - - -
15/08:30pm - - - - - SSW 20 26 11 14 - - -
15/08:00pm - - - - - S 24 32 13 17 - - -
15/07:30pm - - - - - S 24 32 13 17 - - -
15/07:00pm - - - - - S 30 35 16 19 - - -
15/06:30pm - - - - - SSW 30 35 16 19 - - -
15/06:00pm - - - - - SSW 30 37 16 20 - - -
15/05:30pm - - - - - SSW 32 37 17 20 - - -
15/05:00pm - - - - - SSW 32 37 17 20 - - -
15/04:30pm - - - - - SSW 28 35 15 19 - - -
15/04:00pm - - - - - SSW 26 33 14 18 - - -
15/03:30pm - - - - - SSW 24 28 13 15 - - -
15/03:00pm - - - - - S 24 30 13 16 - - -
15/02:30pm - - - - - SSW 24 30 13 16 - - -
15/02:00pm - - - - - SSW 20 28 11 15 - - -
15/01:30pm - - - - - SSW 22 28 12 15 - - -
15/01:00pm - - - - - SW 20 26 11 14 - - -
15/12:30pm - - - - - WSW 22 28 12 15 - - -
15/12:00pm - - - - - WSW 24 32 13 17 - - -
15/11:30am - - - - - WSW 20 32 11 17 - - -
15/11:00am - - - - - WSW 22 30 12 16 - - -
15/10:30am - - - - - W 24 30 13 16 - - -
15/10:00am - - - - - W 24 32 13 17 - - -
15/09:30am - - - - - WSW 20 26 11 14 - - -
15/09:00am - - - - - W 28 33 15 18 - - -
15/08:30am - - - - - WSW 19 28 10 15 - - -
15/08:00am - - - - - WSW 19 22 10 12 - - -
15/07:30am - - - - - WSW 24 32 13 17 - - -
15/07:00am - - - - - SW 17 22 9 12 - - -
15/06:30am - - - - - WSW 30 37 16 20 - - -
15/06:00am - - - - - WSW 32 37 17 20 - - -
15/05:30am - - - - - SW 30 35 16 19 - - -
15/05:00am - - - - - SW 28 35 15 19 - - -
15/04:30am - - - - - SW 30 35 16 19 - - -
15/04:00am - - - - - SW 30 41 16 22 - - -
15/03:30am - - - - - SW 37 46 20 25 - - -
15/03:00am - - - - - SW 35 41 19 22 - - -
15/02:30am - - - - - SW 32 39 17 21 - - -

Other Formats:

Comma delimited format used in spreadsheet applications
http://www.bom.gov.au/fwo/IDV60801/IDV60801.94853.axf

JavaScript Object Notation format (JSON) in row-major order
http://www.bom.gov.au/fwo/IDV60801/IDV60801.94853.json